createdAt,value
2022-09-03T00:00:57.451Z,54.45
2022-09-03T00:03:33.715Z,54.53
2022-09-03T00:06:11.392Z,55.12
2022-09-03T00:08:45.262Z,55.30
2022-09-03T00:35:07.123Z,55.30
2022-09-03T00:37:38.319Z,55.40
2022-09-03T00:40:13.068Z,55.35
2022-09-03T00:42:55.797Z,55.55
2022-09-03T00:45:34.064Z,55.22
2022-09-03T00:48:42.360Z,55.45
2022-09-03T00:51:37.498Z,55.48
2022-09-03T00:54:40.325Z,55.54
2022-09-03T00:57:28.971Z,55.74
2022-09-03T01:00:09.172Z,55.84
2022-09-03T01:03:01.957Z,55.74
2022-09-03T01:05:47.078Z,56.06
2022-09-03T01:08:39.262Z,55.88
2022-09-03T01:11:20.103Z,55.48
2022-09-03T01:14:03.285Z,55.52
2022-09-03T01:16:40.857Z,55.93
2022-09-03T01:19:38.237Z,55.75
2022-09-03T01:22:46.464Z,55.80
2022-09-03T01:25:17.730Z,55.72
2022-09-03T01:28:10.345Z,56.09
2022-09-03T01:30:47.447Z,56.09
2022-09-03T01:33:33.923Z,55.89
2022-09-03T01:36:12.292Z,55.64
2022-09-03T01:38:54.263Z,55.75
2022-09-03T01:41:48.802Z,56.04
2022-09-03T01:44:37.561Z,55.89
2022-09-03T01:47:19.080Z,56.08
2022-09-03T01:49:59.589Z,56.04
2022-09-03T01:52:50.514Z,56.25
2022-09-03T01:55:21.317Z,56.71
2022-09-03T01:57:57.525Z,56.97
2022-09-03T02:00:25.207Z,56.98
2022-09-03T02:02:53.171Z,57.04
2022-09-03T02:05:25.824Z,57.04
2022-09-03T02:08:03.137Z,57.13
2022-09-03T02:10:38.765Z,57.14
2022-09-03T02:13:08.677Z,57.60
2022-09-03T02:15:37.733Z,57.53
2022-09-03T02:18:07.979Z,57.44
2022-09-03T02:20:34.759Z,57.31
2022-09-03T02:23:02.663Z,57.34
2022-09-03T02:25:33.737Z,57.31
2022-09-03T02:28:01.078Z,57.70
2022-09-03T02:30:28.145Z,57.72
2022-09-03T02:32:55.098Z,57.34
2022-09-03T02:35:21.896Z,57.41
2022-09-03T02:37:48.610Z,57.44
2022-09-03T02:40:15.335Z,57.61
2022-09-03T02:42:42.095Z,57.78
2022-09-03T02:45:27.842Z,57.92
2022-09-03T02:47:59.828Z,57.61
2022-09-03T02:50:27.151Z,57.86
2022-09-03T02:52:53.976Z,58.10
2022-09-03T02:55:20.779Z,58.06
2022-09-03T02:57:47.489Z,57.97
2022-09-03T03:00:14.853Z,58.20
2022-09-03T03:02:42.075Z,58.21
2022-09-03T03:05:10.302Z,58.30
2022-09-03T03:07:38.397Z,58.16
2022-09-03T03:10:05.456Z,58.11
2022-09-03T03:12:32.524Z,58.67
2022-09-03T03:14:59.229Z,58.29
2022-09-03T03:17:26.395Z,58.58
2022-09-03T03:19:53.124Z,58.75
2022-09-03T03:22:19.870Z,58.95
2022-09-03T03:24:46.655Z,58.90
2022-09-03T03:27:15.007Z,58.92
2022-09-03T03:29:41.798Z,59.27
2022-09-03T03:32:08.466Z,59.30
2022-09-03T03:34:35.164Z,59.55
2022-09-03T03:37:02.160Z,59.49
2022-09-03T03:39:28.908Z,59.51
2022-09-03T03:41:56.359Z,59.60
2022-09-03T03:44:23.257Z,59.77
2022-09-03T03:46:49.954Z,59.74
2022-09-03T03:49:16.662Z,59.55
2022-09-03T03:51:43.348Z,59.80
2022-09-03T03:54:10.177Z,60.11
2022-09-03T03:56:39.602Z,60.07
2022-09-03T03:59:06.351Z,59.96
2022-09-03T04:01:33.210Z,60.06
2022-09-03T04:04:00.535Z,60.00
2022-09-03T04:06:27.922Z,60.25
2022-09-03T04:08:57.147Z,60.17
2022-09-03T04:11:24.523Z,60.36
2022-09-03T04:13:51.875Z,60.50
2022-09-03T04:16:24.137Z,60.50
2022-09-03T04:18:51.321Z,60.66
2022-09-03T04:21:21.257Z,60.69
2022-09-03T04:23:49.512Z,61.11
2022-09-03T04:26:19.048Z,60.86
2022-09-03T04:28:45.818Z,61.12
2022-09-03T04:31:14.414Z,60.92
2022-09-03T04:33:41.838Z,60.91
2022-09-03T04:36:14.188Z,61.09
2022-09-03T04:38:43.056Z,61.28
2022-09-03T04:41:12.235Z,61.20
2022-09-03T04:43:39.270Z,61.09
2022-09-03T04:46:10.841Z,61.52
2022-09-03T04:48:44.135Z,61.54
2022-09-03T04:51:13.630Z,61.41
2022-09-03T04:53:42.578Z,61.25
2022-09-03T04:56:21.538Z,61.69
2022-09-03T04:58:50.989Z,61.46
2022-09-03T05:01:20.169Z,61.95
2022-09-03T05:03:47.416Z,61.76
2022-09-03T05:06:17.288Z,61.82
2022-09-03T05:08:49.039Z,61.79
2022-09-03T05:11:19.906Z,61.88
2022-09-03T05:13:50.720Z,61.65
2022-09-03T05:16:17.872Z,61.32
2022-09-03T05:18:45.253Z,61.52
2022-09-03T05:21:14.044Z,61.43
2022-09-03T05:23:42.752Z,61.70
2022-09-03T05:26:15.365Z,61.72
2022-09-03T05:28:43.154Z,61.93
2022-09-03T05:31:18.043Z,61.86
2022-09-03T05:33:50.749Z,61.46
2022-09-03T05:36:19.652Z,61.62
2022-09-03T05:38:47.757Z,61.26
2022-09-03T05:41:15.496Z,60.96
2022-09-03T05:43:43.397Z,60.75
2022-09-03T05:46:18.503Z,60.91
2022-09-03T05:48:45.271Z,60.88
2022-09-03T05:51:16.878Z,60.84
2022-09-03T05:53:48.199Z,60.65
2022-09-03T05:56:20.482Z,60.82
2022-09-03T05:58:49.195Z,60.84
2022-09-03T06:01:30.105Z,60.55
2022-09-03T06:04:01.169Z,60.81
2022-09-03T06:06:29.661Z,60.81
2022-09-03T06:08:58.756Z,60.39
2022-09-03T06:11:28.320Z,60.30
2022-09-03T06:13:56.873Z,60.38
2022-09-03T06:16:30.841Z,60.52
2022-09-03T06:18:59.830Z,60.37
2022-09-03T06:21:26.865Z,60.09
2022-09-03T06:23:59.441Z,60.16
2022-09-03T06:26:30.764Z,59.70
2022-09-03T06:28:57.932Z,59.86
2022-09-03T06:31:25.545Z,59.78
2022-09-03T06:33:53.814Z,59.57
2022-09-03T06:36:21.636Z,59.09
2022-09-03T06:38:52.287Z,58.78
2022-09-03T06:41:21.250Z,58.63
2022-09-03T06:43:49.347Z,58.62
2022-09-03T06:46:18.185Z,58.67
2022-09-03T06:48:47.633Z,58.65
2022-09-03T06:51:17.173Z,58.36
2022-09-03T06:53:49.545Z,58.09
2022-09-03T06:56:19.154Z,58.00
2022-09-03T06:58:47.890Z,57.75
2022-09-03T07:01:17.565Z,57.65
2022-09-03T07:03:47.676Z,57.83
2022-09-03T07:06:16.602Z,57.66
2022-09-03T07:08:44.157Z,57.43
2022-09-03T07:11:13.388Z,57.49
2022-09-03T07:13:43.338Z,57.35
2022-09-03T07:16:12.318Z,57.09
2022-09-03T07:18:39.916Z,56.88
2022-09-03T07:21:08.814Z,56.98
2022-09-03T07:23:36.908Z,56.80
2022-09-03T07:26:06.657Z,57.20
2022-09-03T07:28:36.033Z,56.92
2022-09-03T07:31:11.961Z,56.57
2022-09-03T07:33:39.531Z,56.50
2022-09-03T07:36:11.335Z,56.64
2022-09-03T07:38:38.198Z,56.37
2022-09-03T07:41:07.669Z,56.79
2022-09-03T07:43:48.554Z,56.77
2022-09-03T07:46:23.664Z,56.78
2022-09-03T07:48:52.454Z,56.60
2022-09-03T07:51:20.747Z,56.57
2022-09-03T07:53:48.750Z,56.24
2022-09-03T07:56:15.908Z,56.03
2022-09-03T07:58:42.773Z,55.78
2022-09-03T08:01:16.917Z,55.73
2022-09-03T08:03:48.132Z,55.66
2022-09-03T08:06:15.838Z,55.50
2022-09-03T08:08:43.329Z,55.49
2022-09-03T08:11:14.992Z,55.40
2022-09-03T08:13:46.561Z,55.20
2022-09-03T08:16:15.187Z,54.86
2022-09-03T08:18:42.299Z,54.88
2022-09-03T08:21:15.979Z,54.54
2022-09-03T08:23:44.344Z,54.29
2022-09-03T08:26:11.967Z,54.38
2022-09-03T08:28:39.058Z,54.27
2022-09-03T08:31:07.915Z,54.16
2022-09-03T08:33:37.602Z,54.15
2022-09-03T08:36:09.596Z,54.15
2022-09-03T08:38:36.951Z,54.15
2022-09-03T08:41:23.876Z,54.05
2022-09-03T08:44:03.182Z,53.86
2022-09-03T08:46:52.085Z,54.03
2022-09-03T08:49:58.691Z,53.72
2022-09-03T08:52:37.646Z,53.71
2022-09-03T08:55:18.253Z,53.74
2022-09-03T08:57:50.791Z,53.58
2022-09-03T09:00:18.048Z,53.50
2022-09-03T09:03:08.245Z,53.38
2022-09-03T09:05:52.036Z,53.26
2022-09-03T09:08:35.424Z,52.79
2022-09-03T09:11:22.414Z,52.79
2022-09-03T09:14:03.919Z,52.27
2022-09-03T09:16:45.151Z,52.25
2022-09-03T09:19:39.759Z,51.60
2022-09-03T09:22:15.078Z,51.13
2022-09-03T09:24:45.073Z,51.33
2022-09-03T09:27:17.287Z,51.44
2022-09-03T09:29:46.849Z,51.17
2022-09-03T09:32:14.760Z,50.38
2022-09-03T09:34:42.079Z,50.14
2022-09-03T09:37:13.527Z,50.64
2022-09-03T09:39:41.380Z,49.28
2022-09-03T09:42:11.381Z,48.67
2022-09-03T09:44:43.590Z,48.48
2022-09-03T09:47:21.870Z,47.87
2022-09-03T09:49:59.870Z,47.16
2022-09-03T09:52:30.371Z,46.67
2022-09-03T09:55:09.944Z,46.64
2022-09-03T09:57:38.132Z,46.54
2022-09-03T10:00:09.339Z,45.69
2022-09-03T10:02:47.675Z,45.19
2022-09-03T10:05:25.958Z,44.76
2022-09-03T10:08:05.392Z,44.96
2022-09-03T10:10:42.480Z,44.93
2022-09-03T10:13:13.448Z,44.58
2022-09-03T10:15:49.057Z,44.46
2022-09-03T10:18:29.253Z,44.28
2022-09-03T10:21:07.808Z,44.08
2022-09-03T10:23:47.176Z,43.38
2022-09-03T10:26:17.508Z,42.97
2022-09-03T10:28:46.619Z,42.71
2022-09-03T10:31:36.859Z,41.98
2022-09-03T10:34:14.933Z,41.65
2022-09-03T10:36:56.448Z,42.10
2022-09-03T10:39:32.564Z,42.23
2022-09-03T10:42:20.293Z,41.92
2022-09-03T10:44:47.007Z,41.60
2022-09-03T10:47:36.151Z,41.45
2022-09-03T10:50:16.127Z,41.09
2022-09-03T10:53:06.121Z,40.82
2022-09-03T10:55:50.361Z,40.58
2022-09-03T10:58:47.520Z,40.23
2022-09-03T11:01:28.043Z,40.36
2022-09-03T11:04:19.105Z,40.26
2022-09-03T11:06:53.673Z,39.68
2022-09-03T11:09:50.664Z,39.80
2022-09-03T11:12:31.537Z,39.69
2022-09-03T11:15:18.514Z,39.44
2022-09-03T11:17:56.993Z,38.90
2022-09-03T11:20:25.686Z,38.91
2022-09-03T11:22:56.458Z,39.15
2022-09-03T11:25:28.660Z,39.20
2022-09-03T11:28:21.411Z,39.49
2022-09-03T11:31:27.127Z,39.98
2022-09-03T11:34:01.761Z,40.10
2022-09-03T11:36:31.476Z,40.26
2022-09-03T11:38:58.298Z,39.65
2022-09-03T11:41:27.510Z,39.57
2022-09-03T11:43:54.871Z,39.26
2022-09-03T11:46:21.950Z,39.08
2022-09-03T11:48:57.876Z,38.80
2022-09-03T11:51:30.499Z,39.08
2022-09-03T11:54:13.625Z,39.28
2022-09-03T11:56:42.328Z,39.79
2022-09-03T11:59:15.143Z,39.81
2022-09-03T12:01:46.548Z,39.33
2022-09-03T12:04:18.274Z,39.41
2022-09-03T12:07:03.473Z,38.92
2022-09-03T12:10:13.837Z,38.78
2022-09-03T12:12:55.197Z,38.59
2022-09-03T12:15:36.484Z,38.90
2022-09-03T12:18:20.747Z,38.93
2022-09-03T12:20:50.959Z,38.93
2022-09-03T12:23:31.259Z,39.22
2022-09-03T12:26:05.531Z,38.67
2022-09-03T12:28:36.989Z,39.03
2022-09-03T12:31:21.691Z,39.03
2022-09-03T12:33:54.262Z,39.47
2022-09-03T12:36:23.031Z,39.21
2022-09-03T12:39:10.870Z,38.95
2022-09-03T12:41:37.983Z,38.90
2022-09-03T12:44:05.347Z,39.21
2022-09-03T12:46:34.280Z,38.93
2022-09-03T12:51:58.139Z,39.01
2022-09-03T12:54:27.215Z,38.69
2022-09-03T12:56:59.065Z,38.71
2022-09-03T12:59:28.068Z,38.83
2022-09-03T13:02:01.049Z,38.41
2022-09-03T13:04:30.246Z,38.87
2022-09-03T13:07:04.616Z,38.69
2022-09-03T13:09:34.114Z,38.25
2022-09-03T13:12:04.876Z,37.84
2022-09-03T13:14:45.330Z,37.81
2022-09-03T13:17:18.493Z,36.99
2022-09-03T13:20:34.129Z,37.09
2022-09-03T13:23:19.359Z,36.93
2022-09-03T13:26:00.690Z,36.78
2022-09-03T13:28:44.230Z,37.29
2022-09-03T13:31:13.636Z,37.45
2022-09-03T13:33:44.643Z,37.36
2022-09-03T13:36:26.124Z,37.40
2022-09-03T13:39:26.183Z,37.21
2022-09-03T13:42:06.217Z,37.39
2022-09-03T13:45:13.564Z,37.75
2022-09-03T13:48:10.200Z,37.58
2022-09-03T13:50:51.068Z,37.54
2022-09-03T13:53:24.697Z,37.70
2022-09-03T13:55:55.538Z,37.11
2022-09-03T13:58:33.616Z,36.76
2022-09-03T14:01:15.610Z,36.84
2022-09-03T14:03:55.509Z,37.33
2022-09-03T14:06:41.387Z,37.37
2022-09-03T14:09:21.711Z,36.83
2022-09-03T14:12:13.258Z,36.88
2022-09-03T14:14:53.865Z,35.98
2022-09-03T14:17:39.560Z,36.24
2022-09-03T14:20:11.274Z,35.65
2022-09-03T14:23:07.996Z,35.67
2022-09-03T14:25:34.748Z,35.67
2022-09-03T14:28:16.281Z,35.71
2022-09-03T14:31:19.091Z,35.43
2022-09-03T14:33:59.751Z,34.92
2022-09-03T14:36:31.592Z,34.58
2022-09-03T14:39:20.712Z,34.17
2022-09-03T14:42:06.455Z,33.45
2022-09-03T14:44:52.203Z,32.78
2022-09-03T14:47:37.294Z,33.44
2022-09-03T14:50:23.554Z,33.32
2022-09-03T14:53:18.290Z,33.34
2022-09-03T14:56:22.399Z,33.65
2022-09-03T14:59:09.316Z,33.98
2022-09-03T15:01:39.388Z,34.18
2022-09-03T15:04:23.785Z,33.39
2022-09-03T15:07:22.758Z,32.86
2022-09-03T15:10:16.963Z,32.50
2022-09-03T15:12:46.765Z,31.84
2022-09-03T15:15:19.651Z,31.34
2022-09-03T15:18:02.577Z,31.22
2022-09-03T15:20:48.873Z,32.18
2022-09-03T15:23:40.468Z,32.26
2022-09-03T15:26:12.958Z,32.67
2022-09-03T15:29:01.959Z,32.42
2022-09-03T15:32:06.584Z,32.42
2022-09-03T15:34:52.084Z,31.63
2022-09-03T15:37:27.553Z,31.25
2022-09-03T15:40:16.142Z,30.63
2022-09-03T15:42:44.681Z,30.20
2022-09-03T15:45:22.295Z,29.66
2022-09-03T15:47:54.423Z,30.65
2022-09-03T15:50:35.746Z,30.62
2022-09-03T15:53:32.017Z,30.42
2022-09-03T15:56:16.292Z,30.53
2022-09-03T15:59:03.319Z,30.17
2022-09-03T16:01:40.195Z,29.96
2022-09-03T16:04:17.285Z,30.25
2022-09-03T16:07:13.471Z,30.17
2022-09-03T16:10:22.750Z,30.42
2022-09-03T16:13:02.278Z,30.30
2022-09-03T16:15:36.876Z,30.58
2022-09-03T16:18:12.497Z,31.10
2022-09-03T16:20:50.552Z,31.08
2022-09-03T16:23:48.117Z,31.35
2022-09-03T16:26:37.109Z,31.53
2022-09-03T16:29:09.565Z,32.03
2022-09-03T16:32:04.257Z,31.67
2022-09-03T16:34:59.129Z,32.50
2022-09-03T16:37:53.470Z,32.51
2022-09-03T16:40:36.641Z,33.21
2022-09-03T16:43:29.886Z,33.48
2022-09-03T16:46:04.160Z,34.26
2022-09-03T16:48:37.238Z,34.80
2022-09-03T16:51:14.288Z,35.10
2022-09-03T16:54:06.284Z,35.16
2022-09-03T16:56:57.844Z,35.86
2022-09-03T16:59:33.325Z,35.96
2022-09-03T17:02:42.607Z,36.32
2022-09-03T17:05:21.452Z,36.09
2022-09-03T17:08:07.586Z,36.43
2022-09-03T17:10:49.381Z,36.71
2022-09-03T17:13:32.131Z,37.17
2022-09-03T17:16:08.139Z,37.82
2022-09-03T17:18:34.875Z,37.95
2022-09-03T17:21:10.369Z,38.77
2022-09-03T17:23:49.191Z,38.39
2022-09-03T17:26:16.792Z,38.73
2022-09-03T17:28:57.955Z,40.04
2022-09-03T17:31:44.441Z,40.42
2022-09-03T17:34:37.495Z,41.66
2022-09-03T17:37:35.005Z,40.54
2022-09-03T17:40:08.996Z,40.05
2022-09-03T17:43:00.797Z,40.05
2022-09-03T17:45:37.630Z,39.75
2022-09-03T17:48:16.261Z,40.01
2022-09-03T17:50:51.306Z,40.39
2022-09-03T17:53:44.580Z,40.33
2022-09-03T17:56:25.297Z,40.79
2022-09-03T17:59:12.392Z,41.42
2022-09-03T18:01:48.724Z,40.87
2022-09-03T18:04:42.456Z,41.76
2022-09-03T18:07:23.766Z,41.84
2022-09-03T18:10:16.460Z,42.48
2022-09-03T18:13:23.699Z,41.49
2022-09-03T18:16:07.855Z,41.22
2022-09-03T18:18:38.725Z,42.58
2022-09-03T18:21:31.519Z,42.38
2022-09-03T18:24:17.633Z,42.25
2022-09-03T18:27:16.705Z,42.01
2022-09-03T18:30:16.136Z,43.09
2022-09-03T18:33:02.573Z,42.49
2022-09-03T18:35:49.462Z,42.32
2022-09-03T18:38:43.164Z,42.43
2022-09-03T18:41:56.070Z,42.32
2022-09-03T18:44:41.566Z,42.60
2022-09-03T18:50:54.693Z,42.68
2022-09-03T18:53:49.613Z,42.89
2022-09-03T18:56:54.164Z,42.74
2022-09-03T18:59:45.840Z,42.87
2022-09-03T19:02:53.183Z,42.82
2022-09-03T19:05:49.232Z,43.35
2022-09-03T19:08:44.085Z,43.16
2022-09-03T19:11:44.508Z,43.28
2022-09-03T23:29:32.972Z,47.45
